Time;durP1;ratioP1;P1;durP2;ratioP2;P2;SDS_P1;SDS_P2;PMS_P1;PMS_P2;Temp;Humidity;BMP_temperature;BMP_pressure;BME280_temperature;BME280_humidity;BME280_pressure;Samples;Min_cycle;Max_cycle;Signal;HPM_P1;HPM_P2
2022/08/30 00:03:26;;;;;;;13.05;6.43;;;13.60;99.90;;;;;;4990546;28;20504;-56
2022/08/30 00:05:52;;;;;;;12.37;6.63;;;13.60;99.90;;;;;;4990200;28;20110;-55
2022/08/30 00:08:18;;;;;;;17.55;6.95;;;13.50;99.90;;;;;;4990153;28;20635;-56
2022/08/30 00:10:44;;;;;;;18.05;7.18;;;13.50;99.90;;;;;;4989962;28;20465;-58
2022/08/30 00:13:12;;;;;;;11.73;5.67;;;13.50;99.90;;;;;;4990099;28;20711;-55
2022/08/30 00:15:40;;;;;;;15.07;6.28;;;13.40;99.90;;;;;;4990278;28;20297;-55
2022/08/30 00:18:05;;;;;;;10.57;6.97;;;13.50;99.90;;;;;;4990141;28;20061;-55
2022/08/30 00:20:33;;;;;;;14.13;6.13;;;13.40;99.90;;;;;;4990006;28;20062;-56
2022/08/30 00:22:59;;;;;;;14.50;6.60;;;13.40;99.90;;;;;;4990057;28;20047;-55
2022/08/30 00:25:25;;;;;;;15.45;7.35;;;13.30;99.90;;;;;;4989667;28;20042;-55
2022/08/30 00:27:52;;;;;;;11.23;6.13;;;13.30;99.90;;;;;;4989985;28;20034;-55
2022/08/30 00:30:19;;;;;;;10.35;6.45;;;13.30;99.90;;;;;;4989787;28;20026;-56
2022/08/30 00:32:45;;;;;;;10.73;5.50;;;13.30;99.90;;;;;;4989895;28;20110;-56
2022/08/30 00:35:15;;;;;;;10.77;5.88;;;13.30;99.90;;;;;;4990068;28;20038;-56
2022/08/30 00:37:41;;;;;;;14.98;6.43;;;13.20;99.90;;;;;;4990015;28;20034;-55
2022/08/30 00:40:10;;;;;;;11.85;6.80;;;13.20;99.90;;;;;;4989839;28;20622;-55
2022/08/30 00:42:37;;;;;;;13.05;6.93;;;13.20;99.90;;;;;;4989826;28;20096;-56
2022/08/30 00:45:13;;;;;;;14.40;6.07;;;13.10;99.90;;;;;;4989765;28;20494;-56
2022/08/30 00:47:39;;;;;;;13.93;6.13;;;13.20;99.90;;;;;;4989864;28;20043;-56
2022/08/30 00:50:07;;;;;;;14.07;6.20;;;13.30;99.90;;;;;;4989482;28;20047;-56
2022/08/30 00:52:34;;;;;;;12.07;6.65;;;13.40;99.90;;;;;;4989659;28;20038;-56
2022/08/30 00:55:01;;;;;;;13.48;6.20;;;13.40;99.90;;;;;;4989725;28;20034;-55
2022/08/30 00:57:29;;;;;;;12.07;5.87;;;13.30;99.90;;;;;;4989741;28;20030;-56
2022/08/30 00:59:54;;;;;;;13.45;6.60;;;13.30;99.90;;;;;;5001422;28;20104;-55
2022/08/30 01:02:22;;;;;;;9.70;4.90;;;13.30;99.90;;;;;;5009717;28;20109;-55
2022/08/30 01:04:50;;;;;;;14.60;6.95;;;13.30;99.90;;;;;;5009748;28;20033;-55
2022/08/30 01:07:16;;;;;;;11.45;5.15;;;13.40;99.90;;;;;;5010013;28;20073;-55
2022/08/30 01:09:43;;;;;;;13.60;5.87;;;13.30;99.90;;;;;;5009609;28;20076;-56
2022/08/30 01:12:09;;;;;;;14.57;5.18;;;13.20;99.90;;;;;;5010445;28;20025;-54
2022/08/30 01:14:35;;;;;;;11.02;5.88;;;13.20;99.90;;;;;;5013592;28;20105;-55
2022/08/30 01:17:02;;;;;;;11.85;5.53;;;13.10;99.90;;;;;;5013202;28;20034;-55
2022/08/30 01:19:49;;;;;;;14.20;5.80;;;13.10;99.90;;;;;;5013071;28;20458;-55
2022/08/30 01:22:39;;;;;;;10.30;5.07;;;13.10;99.90;;;;;;5013081;28;20808;-55
2022/08/30 01:25:08;;;;;;;14.63;5.50;;;13.10;99.90;;;;;;5013172;28;20076;-54
2022/08/30 01:27:37;;;;;;;11.43;5.72;;;13.10;99.90;;;;;;5012943;28;20085;-54
2022/08/30 01:30:05;;;;;;;17.08;6.18;;;13.10;99.90;;;;;;5012864;28;20034;-54
2022/08/30 01:32:36;;;;;;;10.68;5.63;;;13.10;99.90;;;;;;5012673;28;20117;-56
2022/08/30 01:35:02;;;;;;;10.68;5.68;;;13.00;99.90;;;;;;5012749;28;20049;-55
2022/08/30 01:37:31;;;;;;;11.80;5.68;;;13.10;99.90;;;;;;5012892;28;20029;-55
2022/08/30 01:39:58;;;;;;;12.50;5.47;;;13.00;99.90;;;;;;5012625;28;20025;-54
2022/08/30 01:42:24;;;;;;;14.17;5.77;;;13.00;99.90;;;;;;5012816;28;20113;-55
2022/08/30 01:44:50;;;;;;;11.85;5.25;;;12.90;99.90;;;;;;5012803;28;20122;-55
2022/08/30 01:47:17;;;;;;;11.65;6.15;;;12.90;99.90;;;;;;5012546;28;20061;-55
2022/08/30 01:49:44;;;;;;;10.95;4.93;;;12.90;99.90;;;;;;5012832;28;20099;-56
2022/08/30 01:52:11;;;;;;;11.55;4.97;;;12.90;99.90;;;;;;5012704;28;20042;-54
2022/08/30 01:54:39;;;;;;;14.90;6.00;;;12.80;99.90;;;;;;5012684;28;20083;-55
2022/08/30 01:57:08;;;;;;;11.93;5.20;;;12.70;99.90;;;;;;5012430;28;20034;-54
2022/08/30 01:59:35;;;;;;;12.40;5.53;;;12.70;99.90;;;;;;5012507;28;20037;-54
2022/08/30 02:02:01;;;;;;;12.60;5.35;;;12.70;99.90;;;;;;4995175;28;20033;-55
2022/08/30 02:04:27;;;;;;;10.73;5.60;;;12.60;99.90;;;;;;5012076;28;20505;-55
2022/08/30 02:06:53;;;;;;;11.43;5.05;;;12.60;99.90;;;;;;5012555;28;20042;-54
2022/08/30 02:09:19;;;;;;;9.90;5.47;;;12.60;99.90;;;;;;5012275;28;20030;-55
2022/08/30 02:11:46;;;;;;;9.57;4.70;;;12.60;99.90;;;;;;5012060;28;20040;-54
2022/08/30 02:14:13;;;;;;;11.68;4.70;;;12.60;99.90;;;;;;5012304;28;20038;-54
2022/08/30 02:16:39;;;;;;;14.23;5.75;;;12.60;99.90;;;;;;5012037;28;20030;-54
2022/08/30 02:19:06;;;;;;;16.98;6.20;;;12.70;99.90;;;;;;5012198;28;20123;-55
2022/08/30 02:21:31;;;;;;;10.77;6.10;;;12.80;99.90;;;;;;5012334;28;20057;-55
2022/08/30 02:23:57;;;;;;;13.20;6.30;;;12.80;99.90;;;;;;5011859;28;20489;-54
2022/08/30 02:26:23;;;;;;;11.52;5.63;;;12.70;99.90;;;;;;5011855;28;20473;-55
2022/08/30 02:28:49;;;;;;;12.93;5.70;;;12.70;99.90;;;;;;5012023;28;20030;-55
2022/08/30 02:31:15;;;;;;;10.23;5.57;;;12.60;99.90;;;;;;5012305;28;20026;-55
2022/08/30 02:33:41;;;;;;;13.32;6.40;;;12.60;99.90;;;;;;5011775;28;20030;-55
2022/08/30 02:36:07;;;;;;;11.10;6.28;;;12.50;99.90;;;;;;5011826;28;20037;-55
2022/08/30 02:38:34;;;;;;;13.52;6.05;;;12.60;99.90;;;;;;5011952;28;20109;-55
2022/08/30 02:41:00;;;;;;;10.98;6.07;;;12.50;99.90;;;;;;5011743;28;20051;-55
2022/08/30 02:43:26;;;;;;;11.90;6.00;;;12.50;99.90;;;;;;5011559;28;20034;-55
2022/08/30 02:45:52;;;;;;;12.38;6.55;;;12.40;99.90;;;;;;5011500;28;20032;-55
2022/08/30 02:48:18;;;;;;;13.82;6.50;;;12.40;99.90;;;;;;5011514;28;20033;-55
2022/08/30 02:50:46;;;;;;;10.63;5.75;;;12.40;99.90;;;;;;5011213;28;20489;-55
2022/08/30 02:53:12;;;;;;;12.00;6.00;;;12.30;99.90;;;;;;5011765;28;20022;-55
2022/08/30 02:55:38;;;;;;;10.82;6.25;;;12.30;99.90;;;;;;5011435;28;20084;-55
2022/08/30 02:58:04;;;;;;;12.68;7.10;;;12.30;99.90;;;;;;5011349;28;20042;-55
2022/08/30 03:00:30;;;;;;;11.13;6.30;;;12.30;99.90;;;;;;5011314;28;20041;-55
2022/08/30 03:02:56;;;;;;;9.77;5.60;;;12.40;99.90;;;;;;5011391;28;20477;-54
2022/08/30 03:05:23;;;;;;;13.77;5.75;;;12.40;99.90;;;;;;5011451;28;20436;-55
2022/08/30 03:07:49;;;;;;;11.23;5.75;;;12.40;99.90;;;;;;5011354;28;20033;-55
2022/08/30 03:10:15;;;;;;;14.48;6.63;;;12.40;99.90;;;;;;5011316;28;20034;-55
2022/08/30 03:12:41;;;;;;;12.33;5.67;;;12.40;99.90;;;;;;5011215;28;20477;-55
2022/08/30 03:15:11;;;;;;;11.57;5.50;;;12.40;99.90;;;;;;5011142;28;20022;-55
2022/08/30 03:17:37;;;;;;;11.23;6.25;;;12.40;99.90;;;;;;5011028;28;20048;-55
2022/08/30 03:20:03;;;;;;;10.68;5.50;;;12.40;99.90;;;;;;5011159;28;20038;-55
2022/08/30 03:22:29;;;;;;;12.57;6.43;;;12.50;99.90;;;;;;5010986;28;20604;-55
2022/08/30 03:24:58;;;;;;;11.65;6.03;;;12.50;99.90;;;;;;5011140;28;20030;-55
2022/08/30 03:27:24;;;;;;;15.02;5.95;;;12.50;99.90;;;;;;5010584;28;20061;-55
2022/08/30 03:29:50;;;;;;;17.08;7.22;;;12.60;99.90;;;;;;5010774;28;20034;-55
2022/08/30 03:32:16;;;;;;;10.80;5.55;;;12.50;99.90;;;;;;5010671;28;20025;-55
2022/08/30 03:34:42;;;;;;;12.13;5.63;;;12.50;99.90;;;;;;5010159;28;20234;-55
2022/08/30 03:37:08;;;;;;;11.55;5.38;;;12.40;99.90;;;;;;4993126;28;20390;-55
2022/08/30 03:39:34;;;;;;;9.75;5.15;;;12.40;99.90;;;;;;5010687;28;20128;-54
2022/08/30 03:42:00;;;;;;;13.05;6.22;;;12.30;99.90;;;;;;5010625;28;20043;-55
2022/08/30 03:44:25;;;;;;;12.43;6.38;;;12.30;99.90;;;;;;5009286;28;20033;-55
2022/08/30 03:46:51;;;;;;;12.85;6.05;;;12.20;99.90;;;;;;5010672;28;20032;-55
2022/08/30 03:49:18;;;;;;;12.20;5.43;;;12.20;99.90;;;;;;5010173;28;20397;-55
2022/08/30 03:51:44;;;;;;;15.07;5.97;;;12.10;99.90;;;;;;4993226;28;20030;-57
2022/08/30 03:54:10;;;;;;;11.77;5.18;;;12.10;99.90;;;;;;5010472;28;20026;-55
2022/08/30 03:56:36;;;;;;;12.93;5.88;;;12.00;99.90;;;;;;5010648;28;20038;-55
2022/08/30 03:59:02;;;;;;;13.32;5.78;;;12.00;99.90;;;;;;5010710;28;20026;-55
2022/08/30 04:01:28;;;;;;;12.68;5.50;;;12.10;99.90;;;;;;5014959;28;20105;-55
2022/08/30 04:03:55;;;;;;;12.55;5.80;;;12.10;99.90;;;;;;5018979;28;20097;-55
2022/08/30 04:06:21;;;;;;;9.40;5.30;;;12.10;99.90;;;;;;5017816;28;20973;-54
2022/08/30 04:08:47;;;;;;;9.43;4.95;;;12.00;99.90;;;;;;5015229;28;20037;-55
2022/08/30 04:11:16;;;;;;;11.80;6.63;;;12.00;99.90;;;;;;5019389;28;20616;-55
2022/08/30 04:13:43;;;;;;;9.48;5.55;;;12.00;99.90;;;;;;5020022;28;20404;-54
2022/08/30 04:16:09;;;;;;;12.50;5.97;;;11.90;99.90;;;;;;5018277;28;20025;-55
2022/08/30 04:18:35;;;;;;;9.70;5.30;;;11.90;99.90;;;;;;5018518;28;20040;-54
2022/08/30 04:21:02;;;;;;;13.10;5.90;;;11.90;99.90;;;;;;5020008;28;20034;-55
2022/08/30 04:23:28;;;;;;;10.88;6.47;;;12.00;99.90;;;;;;5015286;28;20380;-55
2022/08/30 04:25:55;;;;;;;16.42;7.53;;;12.00;99.90;;;;;;5018732;28;20025;-54
2022/08/30 04:28:21;;;;;;;16.73;6.90;;;12.00;99.90;;;;;;5019673;28;20044;-55
2022/08/30 04:30:47;;;;;;;12.40;7.28;;;12.00;99.90;;;;;;5014941;28;20026;-55
2022/08/30 04:33:14;;;;;;;15.98;7.35;;;12.00;99.90;;;;;;5018671;28;20542;-55
2022/08/30 04:35:42;;;;;;;12.43;7.63;;;12.00;99.90;;;;;;5009860;28;20090;-55
2022/08/30 04:38:09;;;;;;;16.10;7.55;;;12.00;99.90;;;;;;5015240;28;20042;-55
2022/08/30 04:40:35;;;;;;;17.70;7.47;;;12.00;99.90;;;;;;5000822;28;20028;-55
2022/08/30 04:43:01;;;;;;;17.00;8.02;;;12.00;99.90;;;;;;5019627;28;20281;-55
2022/08/30 04:45:28;;;;;;;12.43;7.43;;;12.00;99.90;;;;;;5014996;28;20473;-55
2022/08/30 04:47:53;;;;;;;14.38;6.80;;;12.00;99.90;;;;;;5021840;28;20037;-55
2022/08/30 04:50:20;;;;;;;12.10;6.68;;;12.10;99.90;;;;;;5022980;28;20543;-54
2022/08/30 04:52:46;;;;;;;14.77;7.83;;;12.10;99.90;;;;;;5021477;28;20381;-55
2022/08/30 04:55:13;;;;;;;16.48;7.65;;;12.30;99.90;;;;;;5020882;28;20026;-55
2022/08/30 04:57:40;;;;;;;17.80;7.45;;;12.20;99.90;;;;;;5017156;28;20030;-54
2022/08/30 05:00:09;;;;;;;16.83;9.15;;;12.30;99.90;;;;;;5019160;28;20395;-55
2022/08/30 05:02:36;;;;;;;16.50;8.13;;;12.30;99.90;;;;;;5017871;28;20052;-55
2022/08/30 05:07:46;;;;;;;14.93;8.32;;;12.40;99.90;;;;;;5019150;28;20087;-54
2022/08/30 05:10:12;;;;;;;22.92;9.75;;;12.40;99.90;;;;;;5018485;28;20517;-54
2022/08/30 05:12:39;;;;;;;21.63;9.38;;;12.50;99.90;;;;;;5018469;28;20034;-54
2022/08/30 05:15:05;;;;;;;16.90;8.80;;;12.60;99.90;;;;;;5019128;28;20026;-55
2022/08/30 05:17:31;;;;;;;20.10;9.10;;;12.70;99.90;;;;;;5020503;28;20033;-55
2022/08/30 05:19:59;;;;;;;17.58;9.57;;;12.70;99.90;;;;;;5019852;28;20617;-54
2022/08/30 05:22:25;;;;;;;19.77;11.02;;;12.70;99.90;;;;;;5017278;28;20056;-55
2022/08/30 05:24:51;;;;;;;22.90;12.02;;;12.80;99.90;;;;;;5010144;28;20029;-54
2022/08/30 05:27:17;;;;;;;29.60;12.93;;;12.90;99.90;;;;;;5011294;28;20168;-55
2022/08/30 05:29:42;;;;;;;21.27;12.68;;;13.00;99.90;;;;;;5011529;28;20079;-55
2022/08/30 05:32:08;;;;;;;25.17;13.80;;;13.10;99.90;;;;;;5009944;28;20385;-55
2022/08/30 05:34:34;;;;;;;21.40;12.70;;;13.20;99.90;;;;;;5011231;28;20038;-55
2022/08/30 05:37:01;;;;;;;27.92;13.65;;;13.30;99.90;;;;;;5011474;28;20755;-56
2022/08/30 05:39:27;;;;;;;;;;;13.30;99.90;;;;;;5011331;28;20071;-56
2022/08/30 05:41:57;;;;;;;21.67;11.90;;;13.40;99.90;;;;;;5011769;28;19943;-55
2022/08/30 05:44:23;;;;;;;28.70;14.50;;;13.50;99.90;;;;;;5011502;28;20806;-55
2022/08/30 05:46:49;;;;;;;23.23;13.88;;;13.60;99.90;;;;;;5011750;28;20030;-55
2022/08/30 05:49:15;;;;;;;26.20;14.45;;;13.70;99.90;;;;;;5011986;28;20037;-56
2022/08/30 05:51:41;;;;;;;28.25;14.63;;;13.80;99.90;;;;;;5012144;28;20064;-55
2022/08/30 05:54:07;;;;;;;25.30;13.27;;;13.90;99.90;;;;;;5012429;28;20473;-55
2022/08/30 05:56:36;;;;;;;25.30;13.88;;;13.90;99.90;;;;;;5012248;28;20042;-55
2022/08/30 05:59:03;;;;;;;25.40;15.27;;;14.00;99.90;;;;;;5026235;28;20036;-55
2022/08/30 06:01:32;;;;;;;31.33;13.93;;;14.10;99.90;;;;;;5011889;28;20449;-55
2022/08/30 06:04:00;;;;;;;23.90;13.43;;;14.20;99.90;;;;;;5012386;28;20099;-55
2022/08/30 06:06:27;;;;;;;27.95;14.25;;;14.30;99.90;;;;;;5025094;28;20029;-56
2022/08/30 06:08:52;;;;;;;24.38;13.50;;;14.40;99.90;;;;;;5023695;28;20051;-55
2022/08/30 06:11:22;;;;;;;24.00;14.10;;;14.40;99.90;;;;;;5012052;28;20385;-55
2022/08/30 06:13:49;;;;;;;24.23;13.30;;;14.50;99.90;;;;;;4994463;28;20480;-54
2022/08/30 06:16:17;;;;;;;31.23;14.13;;;14.60;99.90;;;;;;4994148;28;20026;-55
2022/08/30 06:18:43;;;;;;;26.05;14.95;;;14.70;99.90;;;;;;5010888;28;20042;-55
2022/08/30 06:21:18;;;;;;;28.63;14.30;;;14.70;99.90;;;;;;5014447;28;20469;-55
2022/08/30 06:23:44;;;;;;;24.30;13.60;;;14.80;99.90;;;;;;5022112;28;20030;-55
2022/08/30 06:26:10;;;;;;;28.23;14.07;;;14.90;99.90;;;;;;5023807;28;20033;-55
2022/08/30 06:28:37;;;;;;;25.88;13.85;;;15.00;99.90;;;;;;5019039;28;20038;-55
2022/08/30 06:31:10;;;;;;;29.92;14.30;;;15.00;99.90;;;;;;5021484;28;20025;-54
2022/08/30 06:33:36;;;;;;;28.52;14.98;;;15.00;99.90;;;;;;5021106;28;20042;-54
2022/08/30 06:36:12;;;;;;;33.95;15.55;;;15.10;99.90;;;;;;5010037;28;20029;-54
2022/08/30 06:38:39;;;;;;;31.60;16.95;;;15.10;99.90;;;;;;5025203;28;20025;-54
2022/08/30 06:41:12;;;;;;;33.03;16.30;;;15.30;99.90;;;;;;5031379;28;20076;-54
2022/08/30 06:43:38;;;;;;;33.47;16.42;;;15.40;99.90;;;;;;5013254;28;20030;-54
2022/08/30 06:46:06;;;;;;;39.88;17.52;;;15.40;99.90;;;;;;5031270;28;20024;-54
2022/08/30 06:48:32;;;;;;;35.50;16.73;;;15.60;99.90;;;;;;5030846;28;20099;-54
2022/08/30 06:50:58;;;;;;;34.38;16.40;;;15.60;99.90;;;;;;5030953;28;20049;-54
2022/08/30 06:53:24;;;;;;;33.30;15.68;;;15.70;99.90;;;;;;5030932;28;20041;-55
2022/08/30 06:55:56;;;;;;;37.03;16.90;;;15.80;99.90;;;;;;5031065;28;20730;-55
2022/08/30 06:58:22;;;;;;;35.10;16.40;;;15.80;99.90;;;;;;5029964;28;20358;-54
2022/08/30 07:00:48;;;;;;;42.58;17.98;;;15.90;99.90;;;;;;5030984;28;20033;-55
2022/08/30 07:03:14;;;;;;;29.05;15.32;;;16.00;99.90;;;;;;5015082;28;20060;-55
2022/08/30 07:05:40;;;;;;;29.15;15.20;;;16.00;99.90;;;;;;5023629;28;20057;-54
2022/08/30 07:08:06;;;;;;;30.17;14.93;;;16.20;99.90;;;;;;5009568;28;20034;-54
2022/08/30 07:10:32;;;;;;;28.73;14.25;;;16.30;99.90;;;;;;5008483;28;20477;-56
2022/08/30 07:12:58;;;;;;;25.92;13.82;;;16.40;99.90;;;;;;5010133;28;20113;-56
2022/08/30 07:15:23;;;;;;;27.17;14.65;;;16.60;99.90;;;;;;5010731;28;20026;-56
2022/08/30 07:20:36;;;;;;;26.73;13.50;;;16.80;99.90;;;;;;5007963;28;20075;-55
2022/08/30 07:23:02;;;;;;;33.08;14.57;;;16.90;99.90;;;;;;5010416;28;20124;-54
2022/08/30 07:25:28;;;;;;;28.88;15.00;;;17.00;99.90;;;;;;5009968;28;20497;-55
2022/08/30 07:27:55;;;;;;;31.30;13.82;;;17.00;99.90;;;;;;5010620;28;20038;-54
2022/08/30 07:30:21;;;;;;;;;;;17.10;99.90;;;;;;5011140;28;20058;-54
2022/08/30 07:32:48;;;;;;;28.70;14.18;;;17.20;99.90;;;;;;5010949;28;19936;-54
2022/08/30 07:35:14;;;;;;;28.70;14.32;;;17.30;99.90;;;;;;5009019;28;20037;-55
2022/08/30 07:37:40;;;;;;;27.95;14.20;;;17.30;99.90;;;;;;5010458;28;20053;-54
2022/08/30 07:40:06;;;;;;;27.30;13.07;;;17.30;99.90;;;;;;5010583;28;20054;-55
2022/08/30 07:42:32;;;;;;;29.85;14.77;;;17.40;99.90;;;;;;5010495;28;20034;-55
2022/08/30 07:44:58;;;;;;;30.80;14.10;;;17.50;99.90;;;;;;5010441;28;20034;-54
2022/08/30 07:47:23;;;;;;;34.42;13.27;;;17.80;99.90;;;;;;5010348;28;20022;-55
2022/08/30 07:49:49;;;;;;;30.70;13.75;;;18.00;99.90;;;;;;5010031;28;20049;-55
2022/08/30 07:52:15;;;;;;;32.95;13.75;;;18.10;99.90;;;;;;5009880;28;20105;-55
2022/08/30 07:54:41;;;;;;;28.08;12.80;;;18.20;99.90;;;;;;5009991;28;20414;-55
2022/08/30 07:57:07;;;;;;;33.83;14.13;;;18.20;99.90;;;;;;5015116;28;20079;-55
2022/08/30 07:59:33;;;;;;;22.27;12.15;;;18.30;99.90;;;;;;5024792;28;20033;-55
2022/08/30 08:01:59;;;;;;;30.05;12.73;;;18.50;99.90;;;;;;5010098;28;20113;-55
2022/08/30 08:04:25;;;;;;;29.13;12.32;;;18.50;99.90;;;;;;5014978;28;20057;-54
2022/08/30 08:06:50;;;;;;;28.25;12.20;;;18.60;99.90;;;;;;5020633;28;20084;-55
2022/08/30 08:09:16;;;;;;;16.00;9.57;;;18.70;99.90;;;;;;5011080;28;20052;-54
2022/08/30 08:11:42;;;;;;;18.67;10.57;;;18.90;99.90;;;;;;5009761;28;20025;-54
2022/08/30 08:14:08;;;;;;;21.83;10.25;;;19.10;99.90;;;;;;5009961;28;20048;-55
2022/08/30 08:16:37;;;;;;;26.33;10.68;;;19.20;99.90;;;;;;5010118;28;20103;-54
2022/08/30 08:19:07;;;;;;;18.02;8.82;;;19.20;99.90;;;;;;5009845;28;20034;-55
2022/08/30 08:21:34;;;;;;;14.02;7.97;;;19.30;99.90;;;;;;5009275;28;20036;-54
2022/08/30 08:24:00;;;;;;;16.55;7.78;;;19.50;99.90;;;;;;5009795;28;20065;-55
2022/08/30 08:26:26;;;;;;;14.60;9.65;;;19.70;99.90;;;;;;5009668;28;20659;-55
2022/08/30 08:28:52;;;;;;;15.18;8.95;;;19.80;99.90;;;;;;5011826;28;20492;-55
2022/08/30 08:31:24;;;;;;;16.40;9.20;;;19.90;99.90;;;;;;5009512;28;20049;-55
2022/08/30 08:33:50;;;;;;;19.52;9.93;;;19.90;99.90;;;;;;5009906;28;20041;-55
2022/08/30 08:36:17;;;;;;;19.85;10.65;;;19.90;99.90;;;;;;5009409;28;20173;-56
2022/08/30 08:38:43;;;;;;;18.83;10.05;;;20.00;99.90;;;;;;5009718;28;20022;-55
2022/08/30 08:41:20;;;;;;;18.95;9.98;;;20.10;99.90;;;;;;5009585;28;20130;-55
2022/08/30 08:43:46;;;;;;;21.95;10.32;;;20.20;99.90;;;;;;5009592;28;20034;-55
2022/08/30 08:46:27;;;;;;;20.63;9.57;;;20.20;99.90;;;;;;4990789;28;20030;-55
2022/08/30 08:49:00;;;;;;;19.65;10.05;;;20.20;99.90;;;;;;5009467;28;20046;-55
2022/08/30 08:54:33;;;;;;;176.98;127.30;;;20.30;99.90;;;;;;5009259;28;20088;-57
2022/08/30 08:56:59;;;;;;;15.30;10.68;;;20.50;99.90;;;;;;5009648;28;20025;-56
2022/08/30 08:59:25;;;;;;;19.42;10.07;;;20.80;99.90;;;;;;5016328;28;20108;-56
2022/08/30 09:01:57;;;;;;;20.55;9.70;;;21.10;99.90;;;;;;5022073;28;20134;-55
2022/08/30 09:04:34;;;;;;;16.90;8.55;;;21.60;99.90;;;;;;5009928;28;20088;-55
2022/08/30 09:07:19;;;;;;;17.23;8.88;;;21.90;99.90;;;;;;5008868;28;20040;-56
2022/08/30 09:09:46;;;;;;;15.57;8.70;;;21.80;99.90;;;;;;5009500;28;20058;-56
2022/08/30 09:12:12;;;;;;;13.20;8.35;;;21.70;99.90;;;;;;5009702;28;20481;-56
2022/08/30 09:14:41;;;;;;;13.73;8.32;;;21.80;99.90;;;;;;5009454;28;20041;-54
2022/08/30 09:17:13;;;;;;;16.92;9.65;;;21.50;99.90;;;;;;5009155;28;20026;-55
2022/08/30 09:19:44;;;;;;;20.35;9.90;;;21.40;99.90;;;;;;5009490;28;20062;-56
2022/08/30 09:22:20;;;;;;;14.10;9.23;;;21.00;99.90;;;;;;5004110;28;20037;-56
2022/08/30 09:24:50;;;;;;;18.90;9.07;;;21.10;99.90;;;;;;5009520;28;20049;-55
2022/08/30 09:27:32;;;;;;;16.20;9.13;;;21.10;99.90;;;;;;5009416;28;20100;-54
2022/08/30 09:30:03;;;;;;;18.45;8.60;;;21.70;99.90;;;;;;5008753;28;20045;-56
2022/08/30 09:32:57;;;;;;;16.70;8.60;;;22.40;99.90;;;;;;5008079;28;20528;-57
2022/08/30 09:35:34;;;;;;;16.67;7.60;;;22.90;99.90;;;;;;4994347;28;20041;-55
2022/08/30 09:38:20;;;;;;;316.88;243.55;;;22.60;99.90;;;;;;5012866;28;20034;-56
2022/08/30 09:40:49;;;;;;;13.80;7.75;;;22.50;99.90;;;;;;5012973;28;20154;-57
2022/08/30 09:43:26;;;;;;;8.90;6.60;;;22.10;99.90;;;;;;5021591;28;20026;-56
2022/08/30 09:46:01;;;;;;;11.90;6.07;;;22.10;99.90;;;;;;5021022;28;20493;-56
2022/08/30 09:48:44;;;;;;;10.93;6.38;;;22.30;99.90;;;;;;5021511;28;20030;-56
2022/08/30 09:51:09;;;;;;;10.27;5.75;;;22.10;99.90;;;;;;5020978;28;20049;-56
2022/08/30 09:54:14;;;;;;;9.50;6.15;;;22.30;99.90;;;;;;5020528;28;20551;-56
2022/08/30 09:56:52;;;;;;;9.38;6.40;;;22.20;99.90;;;;;;5018302;28;20457;-55
2022/08/30 09:59:44;;;;;;;11.75;6.47;;;22.50;99.90;;;;;;5018985;28;20030;-56
2022/08/30 10:02:31;;;;;;;9.65;6.18;;;22.90;99.90;;;;;;5004193;28;20017;-55
2022/08/30 10:05:01;;;;;;;11.98;6.32;;;23.00;99.90;;;;;;5018721;28;20614;-55
2022/08/30 10:07:33;;;;;;;8.40;6.00;;;23.30;99.90;;;;;;5013933;28;20038;-56
2022/08/30 10:10:20;;;;;;;9.35;5.47;;;23.70;99.90;;;;;;5020683;28;20096;-56
2022/08/30 10:12:54;;;;;;;8.93;5.47;;;23.60;99.90;;;;;;5021096;28;20036;-55
2022/08/30 10:15:27;;;;;;;10.82;6.30;;;23.70;99.90;;;;;;5018461;28;20108;-55
2022/08/30 10:18:04;;;;;;;11.18;6.65;;;24.20;99.90;;;;;;5017493;28;20105;-56
2022/08/30 10:20:41;;;;;;;15.48;6.63;;;24.70;99.90;;;;;;5018140;28;20056;-55
2022/08/30 10:23:21;;;;;;;7.78;5.05;;;24.90;99.90;;;;;;5019850;28;20029;-56
2022/08/30 10:25:55;;;;;;;7.18;4.53;;;24.90;99.90;;;;;;5020817;28;20047;-56
2022/08/30 10:28:25;;;;;;;8.10;5.10;;;24.90;99.70;;;;;;5021017;28;20045;-56
2022/08/30 10:31:26;;;;;;;8.75;4.18;;;24.90;99.90;;;;;;5019500;28;20568;-57
2022/08/30 10:33:59;;;;;;;4.72;3.70;;;25.00;99.90;;;;;;5020746;28;20377;-57
2022/08/30 10:36:43;;;;;;;7.28;4.18;;;24.90;99.90;;;;;;5020303;28;20052;-56
2022/08/30 10:39:27;;;;;;;8.48;3.97;;;24.80;99.90;;;;;;5012816;28;20030;-56
2022/08/30 10:42:01;;;;;;;9.32;4.65;;;25.20;98.50;;;;;;5011727;28;20036;-55
2022/08/30 10:44:33;;;;;;;10.20;4.55;;;25.90;99.90;;;;;;5016847;28;20028;-56
2022/08/30 10:47:13;;;;;;;6.85;3.97;;;25.60;99.90;;;;;;5008821;28;20133;-55
2022/08/30 10:49:45;;;;;;;6.75;3.10;;;25.60;97.90;;;;;;5019042;28;20042;-55
2022/08/30 10:52:11;;;;;;;3.83;2.50;;;25.30;97.20;;;;;;5025146;28;20033;-55
2022/08/30 10:54:43;;;;;;;8.30;3.50;;;25.60;98.60;;;;;;5031563;28;20030;-56
2022/08/30 10:57:09;;;;;;;7.80;2.33;;;26.10;96.80;;;;;;5031345;28;20066;-56
2022/08/30 10:59:44;;;;;;;4.43;2.45;;;26.50;95.30;;;;;;5031145;28;20032;-55
2022/08/30 11:02:43;;;;;;;4.45;2.65;;;27.00;94.10;;;;;;5030422;28;20030;-56
2022/08/30 11:05:30;;;;;;;4.55;2.58;;;27.10;90.20;;;;;;5012642;28;20029;-56
2022/08/30 11:08:17;;;;;;;4.70;2.80;;;27.10;87.90;;;;;;5030862;28;20033;-56
2022/08/30 11:10:59;;;;;;;4.70;3.00;;;27.40;91.70;;;;;;5031253;28;20056;-55
2022/08/30 11:13:29;;;;;;;5.50;3.88;;;27.20;90.10;;;;;;5029069;28;20042;-56
2022/08/30 11:16:00;;;;;;;9.45;3.25;;;26.40;92.00;;;;;;5030502;28;20025;-55
2022/08/30 11:18:29;;;;;;;5.60;3.42;;;26.10;92.40;;;;;;5011333;28;20663;-56
2022/08/30 11:21:19;;;;;;;6.97;3.80;;;25.50;92.50;;;;;;5010901;28;20022;-55
2022/08/30 11:24:08;;;;;;;5.30;3.13;;;25.60;97.30;;;;;;5017875;28;20104;-55
2022/08/30 11:26:47;;;;;;;3.88;2.70;;;26.10;98.00;;;;;;5017444;28;20116;-56
2022/08/30 11:29:33;;;;;;;7.95;3.25;;;26.40;94.00;;;;;;5011110;28;20030;-53
2022/08/30 11:32:20;;;;;;;6.60;3.60;;;26.20;94.10;;;;;;5010941;28;20026;-53
2022/08/30 11:34:45;;;;;;;35.42;27.90;;;26.70;92.80;;;;;;5010802;28;20509;-56
2022/08/30 11:37:29;;;;;;;5.20;3.00;;;27.20;91.70;;;;;;5015425;28;20120;-55
2022/08/30 11:39:58;;;;;;;3.25;1.88;;;27.30;91.00;;;;;;5029645;28;20377;-56
2022/08/30 11:42:32;;;;;;;3.30;2.03;;;27.20;87.00;;;;;;5029427;28;20025;-54
2022/08/30 11:45:22;;;;;;;4.65;1.58;;;27.40;92.10;;;;;;5030701;28;20029;-54
2022/08/30 11:47:50;;;;;;;2.33;1.50;;;27.50;78.60;;;;;;5030199;28;20029;-54
2022/08/30 11:50:46;;;;;;;5.88;1.58;;;27.30;76.30;;;;;;5030146;28;20083;-55
2022/08/30 11:53:57;;;;;;;4.07;1.85;;;27.20;75.50;;;;;;5029682;28;20342;-55
2022/08/30 11:56:58;;;;;;;2.75;1.75;;;27.40;81.40;;;;;;5020527;28;20059;-56
2022/08/30 11:59:30;;;;;;;2.65;1.95;;;27.70;84.40;;;;;;4993714;28;20046;-56
2022/08/30 12:01:57;;;;;;;2.55;1.80;;;27.90;78.30;;;;;;5009128;28;20085;-55
2022/08/30 12:04:36;;;;;;;2.53;1.48;;;26.80;75.10;;;;;;5019059;28;20499;-55
2022/08/30 12:07:05;;;;;;;4.15;2.33;;;27.20;76.10;;;;;;5028918;28;20438;-55
2022/08/30 12:09:51;;;;;;;5.70;2.40;;;27.60;83.60;;;;;;5027782;28;20033;-56
2022/08/30 12:12:29;;;;;;;4.78;2.22;;;27.50;80.20;;;;;;5020527;28;20033;-56
2022/08/30 12:14:56;;;;;;;4.85;2.72;;;27.00;83.40;;;;;;5029198;28;20025;-56
2022/08/30 12:20:41;;;;;;;4.75;2.78;;;26.10;90.10;;;;;;5020652;28;19951;-56
2022/08/30 12:23:45;;;;;;;6.32;2.78;;;25.70;91.90;;;;;;4974587;28;20034;-56
2022/08/30 12:26:11;;;;;;;5.63;3.28;;;25.30;91.50;;;;;;5017960;28;20025;-56
2022/08/30 12:28:37;;;;;;;7.03;2.97;;;25.10;92.50;;;;;;5015569;28;20049;-56
2022/08/30 12:31:13;;;;;;;5.28;2.97;;;25.00;93.90;;;;;;5014971;28;20029;-56
2022/08/30 12:33:46;;;;;;;4.53;2.80;;;25.10;92.70;;;;;;5019523;28;20101;-56
2022/08/30 12:36:15;;;;;;;4.80;2.72;;;25.30;92.60;;;;;;5016643;28;20076;-55
2022/08/30 12:38:41;;;;;;;4.18;3.03;;;25.00;92.10;;;;;;5016888;28;20129;-55
2022/08/30 12:41:07;;;;;;;5.55;3.45;;;24.90;94.40;;;;;;5014229;28;20022;-56
2022/08/30 12:43:46;;;;;;;6.00;2.50;;;25.10;95.10;;;;;;5017575;28;20429;-55
2022/08/30 12:46:18;;;;;;;2.90;2.40;;;25.50;95.60;;;;;;5009246;28;20593;-55
2022/08/30 12:48:44;;;;;;;2.90;2.10;;;25.90;92.70;;;;;;5008689;28;20042;-55
2022/08/30 12:51:34;;;;;;;3.50;1.83;;;26.00;91.40;;;;;;5007302;28;20046;-55
2022/08/30 12:54:16;;;;;;;3.58;2.30;;;26.40;89.80;;;;;;5008331;28;20327;-55
2022/08/30 12:56:58;;;;;;;5.15;2.20;;;26.30;91.40;;;;;;4991051;28;20099;-55
2022/08/30 12:59:45;;;;;;;5.93;2.53;;;26.60;92.40;;;;;;5011021;28;20537;-55
2022/08/30 13:02:14;;;;;;;3.60;2.17;;;26.90;89.30;;;;;;5028467;28;20590;-61
2022/08/30 13:04:40;;;;;;;4.07;1.63;;;27.00;90.30;;;;;;5028472;28;20458;-55
2022/08/30 13:07:07;;;;;;;8.53;1.80;;;27.20;76.50;;;;;;5016010;28;20034;-55